EBCIEBOS

Guest
Details From EBCI - Brussels South - Charleroi
To EBOS - Oostende
Flight Number -
Tags generated
Created
Modified
Stats Distance 75 nm / 138 km
Max Altitude 600 ft / 183 m
Waypoints 3
Social Downloads 11
Likes 0
Share VATSIM

Download

Looking for another format? Having issues loading an existing format? Contact us
Advertisement - Login to hide

Notes

Basic altitude profile: - Ascent Rate: 700ft/min - Ascent Speed: 100kts - Cruise Altitude: 4500ft - Cruise Speed: 1200kts - Descent Rate: 700ft/min - Descent Speed: 100kts

Route

EBCI SISGA EBOS

ID Type Via Altitude Latitude Longitude Leg Dist Tot Dist Heading (true) Name
O EBCI APT - 0 ft / 0 m 50.45995˚ 4.45312˚ - 0 nm - Brussels South - Charleroi
SISGA FIX - 600 ft / 183 m 50.61797˚ 4.05657˚ 17 nm 17 nm 302° / 302° -
O EBOS APT - 0 ft / 0 m 51.19997˚ 2.87501˚ 56 nm 74 nm 308° / 308° Oostende

Altitude Profile

Advertisement - Login to hide

EBCI

Details ICAO EBCI (CRL)
Name Brussels South - Charleroi
Region Belgium
Timezone Europe/Brussels (UTC+1.0)
Stats Elevation 614 ft / 187 m (AMSL)
Location 50.459947° 4.453125°
Runways 1
Magnetic Variation 1.134° E

METAR

EBCI 150050Z 23012KT 9999 SCT006 BKN026 02/01 Q0991 TEMPO BKN006

Decode

TAF

TAF EBCI 142310Z 1500/1606 23010KT 9999 SCT010 SCT035 TEMPO 1500/1502 BKN007 PROB40 TEMPO 1504/1506 2500 SHSNRA BKN006 SCT011CB PROB40 TEMPO 1513/1517 2500 SHSNRA BKN006 SCT011CB PROB30 TEMPO 1522/1602 2500 BR BKN003

Decode

Departure Runways

ID Width Length Bearing (true) Bearing (mag) Surface Threshold Offset Overrun Length
07 148 ft / 45 m 8,374 ft / 2,552 m 65.53° 64.40° Asphalt 1,476 ft / 450 m 0 ft / 0 m
25 148 ft / 45 m 8,374 ft / 2,552 m 245.55° 244.42° Asphalt 0 ft / 0 m 0 ft / 0 m

EBOS

Details ICAO EBOS (OST)
Name Oostende
Region Belgium
Timezone Europe/Brussels (UTC+1.0)
Stats Elevation 13 ft / 4 m (AMSL)
Location 51.199967° 2.875008°
Runways 1
Magnetic Variation 0.589° E

METAR

EBOS 150050Z 21010KT 6000 -SHRA FEW009 SCT012 BKN027 02/M00 Q0990 TEMPO 4000 SHRA

Decode

TAF

TAF EBOS 142310Z 1500/1606 20009KT 9999 SCT030 SCT045 PROB40 TEMPO 1501/1503 3000 SHRAGS BKN009 SCT014CB TEMPO 1504/1506 29012KT PROB40 TEMPO 1510/1515 3000 SHRAGS BKN009 SCT014CB

Decode

Destination Runways

ID Width Length Bearing (true) Bearing (mag) Surface Threshold Offset Overrun Length
08 148 ft / 45 m 10,515 ft / 3,205 m 76.36° 75.77° Asphalt 984 ft / 300 m 0 ft / 0 m
26 148 ft / 45 m 10,515 ft / 3,205 m 256.39° 255.80° Asphalt 1,362 ft / 415 m 0 ft / 0 m

Approach Navaids

Runway Type Ident Frequency Range Bearing (true) Bearing (mag) Slope Elevation
08 Localiser IMI 111.55 MHz 18 nm / 33 km 76.37° 75.79° - 13 ft / 4 m (AMSL)
08 Glidescope IMI 111.55 MHz 10 nm / 19 km 76.37° 75.79° 3.00° 13 ft / 4 m (AMSL)
08 DME IMI 111.55 MHz 18 nm / 33 km - - - 13 ft / 4 m (AMSL)
26 Localiser IOS 109.50 MHz 18 nm / 33 km 256.37° 255.79° - 13 ft / 4 m (AMSL)
26 Glidescope IOS 109.50 MHz 10 nm / 19 km 256.37° 255.79° 3.00° 13 ft / 4 m (AMSL)

Popular Alternatives